Time;durP1;ratioP1;P1;durP2;ratioP2;P2;SDS_P1;SDS_P2;PMS_P1;PMS_P2;Temp;Humidity;BMP_temperature;BMP_pressure;BME280_temperature;BME280_humidity;BME280_pressure;Samples;Min_cycle;Max_cycle;Signal;HPM_P1;HPM_P2
2023/05/07 00:00:44;;;;;;;27.00;21.65;;;;;;;;;;5016378;28;20061;-91
2023/05/07 00:03:13;;;;;;;30.95;21.75;;;;;;;;;;5016585;28;20502;-91
2023/05/07 00:05:41;;;;;;;29.77;21.60;;;;;;;;;;5016780;28;20050;-91
2023/05/07 00:08:08;;;;;;;27.73;21.75;;;;;;;;;;5017565;28;20050;-92
2023/05/07 00:10:36;;;;;;;29.40;23.33;;;;;;;;;;5017684;28;20415;-91
2023/05/07 00:13:03;;;;;;;32.50;23.60;;;;;;;;;;5016483;28;20045;-91
2023/05/07 00:15:30;;;;;;;34.05;23.63;;;;;;;;;;5016528;28;20068;-91
2023/05/07 00:17:59;;;;;;;31.05;22.85;;;;;;;;;;5017291;28;20057;-91
2023/05/07 00:20:26;;;;;;;34.22;24.33;;;;;;;;;;5017259;28;20050;-91
2023/05/07 00:22:54;;;;;;;31.42;23.30;;;;;;;;;;5017324;28;20093;-91
2023/05/07 00:25:21;;;;;;;33.65;24.00;;;;;;;;;;5021507;28;20064;-91
2023/05/07 00:27:48;;;;;;;32.67;23.40;;;;;;;;;;5016692;28;20060;-91
2023/05/07 00:30:16;;;;;;;35.38;23.63;;;;;;;;;;5017269;28;20406;-90
2023/05/07 00:32:45;;;;;;;27.23;21.88;;;;;;;;;;5016137;28;20465;-91
2023/05/07 00:35:12;;;;;;;30.02;23.15;;;;;;;;;;5016137;28;20454;-91
2023/05/07 00:37:40;;;;;;;30.92;22.02;;;;;;;;;;5015990;28;20058;-91
2023/05/07 00:40:08;;;;;;;30.05;22.48;;;;;;;;;;5017091;28;20142;-91
2023/05/07 00:42:36;;;;;;;32.47;21.88;;;;;;;;;;5016856;28;20088;-91
2023/05/07 00:45:04;;;;;;;29.25;22.38;;;;;;;;;;5015622;28;20056;-91
2023/05/07 00:47:31;;;;;;;31.95;23.80;;;;;;;;;;5016859;28;20145;-90
2023/05/07 00:49:58;;;;;;;33.17;23.52;;;;;;;;;;5015647;28;20092;-91
2023/05/07 00:52:26;;;;;;;34.03;23.80;;;;;;;;;;5028341;28;20040;-91
2023/05/07 00:54:54;;;;;;;33.08;23.88;;;;;;;;;;5016238;28;20144;-91
2023/05/07 00:57:22;;;;;;;29.73;22.27;;;;;;;;;;5016856;28;20053;-92
2023/05/07 00:59:49;;;;;;;29.35;22.00;;;;;;;;;;5015925;28;20140;-91
2023/05/07 01:02:17;;;;;;;30.10;22.83;;;;;;;;;;5015447;28;20054;-92
2023/05/07 01:04:44;;;;;;;27.88;22.30;;;;;;;;;;5015410;28;20046;-91
2023/05/07 01:07:12;;;;;;;32.03;23.48;;;;;;;;;;5015197;28;20054;-91
2023/05/07 01:09:39;;;;;;;29.17;21.63;;;;;;;;;;5016573;28;20046;-92
2023/05/07 01:12:07;;;;;;;31.55;22.80;;;;;;;;;;5015806;28;20109;-91
2023/05/07 01:14:35;;;;;;;28.00;21.88;;;;;;;;;;5016173;28;20059;-90
2023/05/07 01:17:02;;;;;;;30.02;23.00;;;;;;;;;;5015017;28;20069;-90
2023/05/07 01:19:30;;;;;;;30.33;21.45;;;;;;;;;;5015350;28;20056;-92
2023/05/07 01:22:02;;;;;;;32.58;24.15;;;;;;;;;;5015272;28;20112;-92
2023/05/07 01:24:29;;;;;;;30.77;23.92;;;;;;;;;;5015027;28;20053;-92
2023/05/07 01:26:57;;;;;;;33.30;24.05;;;;;;;;;;5016148;28;20054;-91
2023/05/07 01:29:24;;;;;;;29.05;22.80;;;;;;;;;;5014923;28;20175;-91
2023/05/07 01:31:52;;;;;;;29.70;22.42;;;;;;;;;;5015098;28;20104;-91
2023/05/07 01:34:21;;;;;;;29.92;21.77;;;;;;;;;;5015990;28;20050;-92
2023/05/07 01:36:49;;;;;;;27.75;21.95;;;;;;;;;;5014892;28;20081;-92
2023/05/07 01:39:16;;;;;;;31.73;23.63;;;;;;;;;;5018934;28;20050;-92
2023/05/07 01:41:44;;;;;;;31.67;24.05;;;;;;;;;;5018451;28;20497;-92
2023/05/07 01:44:13;;;;;;;32.58;22.77;;;;;;;;;;5014350;28;20050;-91
2023/05/07 01:46:40;;;;;;;31.45;22.55;;;;;;;;;;5015226;28;20050;-92
2023/05/07 01:49:07;;;;;;;30.40;22.67;;;;;;;;;;5015827;28;20566;-92
2023/05/07 01:51:35;;;;;;;35.70;23.77;;;;;;;;;;5014664;28;20053;-91
2023/05/07 01:54:02;;;;;;;32.30;23.30;;;;;;;;;;5014471;28;20092;-92
2023/05/07 01:56:30;;;;;;;33.47;23.20;;;;;;;;;;5015516;28;20073;-92
2023/05/07 01:58:57;;;;;;;31.02;22.10;;;;;;;;;;5015188;28;20065;-92
2023/05/07 02:01:24;;;;;;;34.00;24.27;;;;;;;;;;5014434;28;20056;-93
2023/05/07 02:03:53;;;;;;;30.15;22.30;;;;;;;;;;5014213;28;20425;-92
2023/05/07 02:06:20;;;;;;;30.10;21.52;;;;;;;;;;5015062;28;20046;-92
2023/05/07 02:08:48;;;;;;;33.72;23.40;;;;;;;;;;5014763;28;20490;-92
2023/05/07 02:11:15;;;;;;;35.40;24.33;;;;;;;;;;5015101;28;20050;-92
2023/05/07 02:13:42;;;;;;;34.67;24.23;;;;;;;;;;5014985;28;20518;-92
2023/05/07 02:16:10;;;;;;;39.30;25.73;;;;;;;;;;5014828;28;20463;-91
2023/05/07 02:18:38;;;;;;;35.35;25.00;;;;;;;;;;5013855;28;20406;-92
2023/05/07 02:21:05;;;;;;;36.58;24.30;;;;;;;;;;5013464;28;20092;-91
2023/05/07 02:23:32;;;;;;;35.95;25.05;;;;;;;;;;5012915;28;20062;-91
2023/05/07 02:25:59;;;;;;;39.38;26.08;;;;;;;;;;5014584;28;20084;-91
2023/05/07 02:28:26;;;;;;;37.90;25.13;;;;;;;;;;5014428;28;20050;-92
2023/05/07 02:30:54;;;;;;;34.60;24.90;;;;;;;;;;5013641;28;20061;-91
2023/05/07 02:33:21;;;;;;;36.42;25.00;;;;;;;;;;5013575;28;20053;-91
2023/05/07 02:35:49;;;;;;;36.33;25.75;;;;;;;;;;5013650;28;20123;-91
2023/05/07 02:38:16;;;;;;;36.90;25.20;;;;;;;;;;5014382;28;20056;-92
2023/05/07 02:40:43;;;;;;;39.85;27.27;;;;;;;;;;5014293;28;20096;-91
2023/05/07 02:43:10;;;;;;;36.80;25.98;;;;;;;;;;5014571;28;20128;-91
2023/05/07 02:45:37;;;;;;;33.25;25.33;;;;;;;;;;5014257;28;20421;-92
2023/05/07 02:48:08;;;;;;;38.08;26.27;;;;;;;;;;5013444;28;20061;-91
2023/05/07 02:50:35;;;;;;;37.22;27.13;;;;;;;;;;5013498;28;20112;-92
2023/05/07 02:53:03;;;;;;;41.85;27.90;;;;;;;;;;5015083;28;20053;-92
2023/05/07 02:55:31;;;;;;;40.25;27.52;;;;;;;;;;5019920;28;20130;-91
2023/05/07 02:57:58;;;;;;;40.67;26.02;;;;;;;;;;5013641;28;20045;-92
2023/05/07 03:00:25;;;;;;;42.03;28.15;;;;;;;;;;5013424;28;20054;-94
2023/05/07 03:02:52;;;;;;;42.15;27.77;;;;;;;;;;5025213;28;20052;-92
2023/05/07 03:05:20;;;;;;;36.72;25.83;;;;;;;;;;5026025;28;20054;-92
2023/05/07 03:07:47;;;;;;;39.88;26.92;;;;;;;;;;5012946;28;20046;-92
2023/05/07 03:10:14;;;;;;;38.67;25.70;;;;;;;;;;5013131;28;20045;-92
2023/05/07 03:12:42;;;;;;;38.83;24.05;;;;;;;;;;5013327;28;20100;-92
2023/05/07 03:15:10;;;;;;;35.25;24.80;;;;;;;;;;5013635;28;20046;-91
2023/05/07 03:17:37;;;;;;;38.20;25.98;;;;;;;;;;5013805;28;20082;-91
2023/05/07 03:20:05;;;;;;;34.95;24.73;;;;;;;;;;5012987;28;20046;-92
2023/05/07 03:22:32;;;;;;;34.47;24.00;;;;;;;;;;5013527;28;20589;-91
2023/05/07 03:24:59;;;;;;;38.45;26.65;;;;;;;;;;5013838;28;20054;-91
2023/05/07 03:27:27;;;;;;;36.13;24.08;;;;;;;;;;5013816;28;20138;-91
2023/05/07 03:29:54;;;;;;;33.88;24.67;;;;;;;;;;5013555;28;20133;-92
2023/05/07 03:32:21;;;;;;;36.90;24.98;;;;;;;;;;5013747;28;20050;-91
2023/05/07 03:34:48;;;;;;;39.63;24.95;;;;;;;;;;5015113;28;20136;-91
2023/05/07 03:37:16;;;;;;;39.58;26.30;;;;;;;;;;5019202;28;20050;-91
2023/05/07 03:39:43;;;;;;;37.03;24.48;;;;;;;;;;5019202;28;20208;-92
2023/05/07 03:42:10;;;;;;;33.67;24.10;;;;;;;;;;5019429;28;20046;-92
2023/05/07 03:44:37;;;;;;;33.30;24.52;;;;;;;;;;5019196;28;20404;-91
2023/05/07 03:47:04;;;;;;;35.33;24.52;;;;;;;;;;5019027;28;20053;-91
2023/05/07 03:49:32;;;;;;;34.90;22.80;;;;;;;;;;5019220;28;20049;-92
2023/05/07 03:51:59;;;;;;;32.40;22.65;;;;;;;;;;5019156;28;20049;-92
2023/05/07 03:54:26;;;;;;;34.92;24.20;;;;;;;;;;5019181;28;20048;-91
2023/05/07 03:56:53;;;;;;;37.25;24.30;;;;;;;;;;5020063;28;20045;-92
2023/05/07 03:59:20;;;;;;;32.95;23.27;;;;;;;;;;5019832;28;20085;-91
2023/05/07 04:01:48;;;;;;;37.60;23.77;;;;;;;;;;5018795;28;20061;-92
2023/05/07 04:04:15;;;;;;;31.05;21.63;;;;;;;;;;5018868;28;20054;-91
2023/05/07 04:06:43;;;;;;;33.05;22.70;;;;;;;;;;5020446;28;20134;-92
2023/05/07 04:09:10;;;;;;;35.53;23.48;;;;;;;;;;5028966;28;20049;-92
2023/05/07 04:11:39;;;;;;;35.97;23.70;;;;;;;;;;5023005;28;20752;-91
2023/05/07 04:14:07;;;;;;;34.70;23.23;;;;;;;;;;5018673;28;20474;-91
2023/05/07 04:16:35;;;;;;;35.65;24.08;;;;;;;;;;5018838;28;20050;-92
2023/05/07 04:19:02;;;;;;;37.22;24.80;;;;;;;;;;5019768;28;20046;-91
2023/05/07 04:21:29;;;;;;;26.42;20.85;;;;;;;;;;5019800;28;20081;-91
2023/05/07 04:23:57;;;;;;;32.45;22.42;;;;;;;;;;5018559;28;20400;-91
2023/05/07 04:26:24;;;;;;;32.72;22.05;;;;;;;;;;5019648;28;20046;-91
2023/05/07 04:28:51;;;;;;;30.50;22.40;;;;;;;;;;5018870;28;20049;-91
2023/05/07 04:31:19;;;;;;;30.90;20.95;;;;;;;;;;5019731;28;20046;-92
2023/05/07 04:33:48;;;;;;;31.15;21.98;;;;;;;;;;5018922;28;20049;-91
2023/05/07 04:36:16;;;;;;;30.52;21.77;;;;;;;;;;5018719;28;20061;-92
2023/05/07 04:38:43;;;;;;;31.45;22.05;;;;;;;;;;5019602;28;20503;-92
2023/05/07 04:41:11;;;;;;;27.27;20.48;;;;;;;;;;5018024;28;20052;-93
2023/05/07 04:43:38;;;;;;;34.55;21.20;;;;;;;;;;5019610;28;20046;-93
2023/05/07 04:46:05;;;;;;;32.53;22.02;;;;;;;;;;5016665;28;20050;-92
2023/05/07 04:48:32;;;;;;;32.78;21.00;;;;;;;;;;5016762;28;20050;-91
2023/05/07 04:51:00;;;;;;;34.00;21.65;;;;;;;;;;5016705;28;20056;-92
2023/05/07 04:53:43;;;;;;;35.15;22.63;;;;;;;;;;5014869;28;20046;-91
2023/05/07 04:56:10;;;;;;;29.42;20.35;;;;;;;;;;5015351;28;20510;-91
2023/05/07 04:58:37;;;;;;;30.80;20.83;;;;;;;;;;5015317;28;20478;-92
2023/05/07 05:01:05;;;;;;;31.42;19.90;;;;;;;;;;5015579;28;20414;-92
2023/05/07 05:03:32;;;;;;;29.08;21.13;;;;;;;;;;5016213;28;20077;-92
2023/05/07 05:05:59;;;;;;;30.50;20.90;;;;;;;;;;5015672;28;20050;-91
2023/05/07 05:08:27;;;;;;;29.42;20.77;;;;;;;;;;5015316;28;20101;-91
2023/05/07 05:10:54;;;;;;;27.20;19.73;;;;;;;;;;5017489;28;20050;-91
2023/05/07 05:13:21;;;;;;;30.67;19.45;;;;;;;;;;5026480;28;20050;-92
2023/05/07 05:15:49;;;;;;;28.83;20.15;;;;;;;;;;5028548;28;20137;-92
2023/05/07 05:18:16;;;;;;;28.67;20.45;;;;;;;;;;5016232;28;20045;-91
2023/05/07 05:20:43;;;;;;;27.45;19.52;;;;;;;;;;5016802;28;20137;-91
2023/05/07 05:23:11;;;;;;;32.42;19.70;;;;;;;;;;5017336;28;20066;-91
2023/05/07 05:25:40;;;;;;;27.05;18.80;;;;;;;;;;5021526;28;20053;-92
2023/05/07 05:28:07;;;;;;;27.77;17.55;;;;;;;;;;5015948;28;20073;-91
2023/05/07 05:30:34;;;;;;;26.33;18.88;;;;;;;;;;5016073;28;20391;-90
2023/05/07 05:33:01;;;;;;;24.23;18.13;;;;;;;;;;5014874;28;20050;-91
2023/05/07 05:35:30;;;;;;;26.70;17.65;;;;;;;;;;5014827;28;20054;-91
2023/05/07 05:37:57;;;;;;;27.17;17.83;;;;;;;;;;5014502;28;20042;-91
2023/05/07 05:40:25;;;;;;;23.63;17.13;;;;;;;;;;5015672;28;20471;-91
2023/05/07 05:42:52;;;;;;;25.80;17.15;;;;;;;;;;5014786;28;20050;-92
2023/05/07 05:45:19;;;;;;;25.23;17.52;;;;;;;;;;5015329;28;20494;-91
2023/05/07 05:47:46;;;;;;;24.10;16.80;;;;;;;;;;5015499;28;20084;-91
2023/05/07 05:50:14;;;;;;;24.30;17.55;;;;;;;;;;5015633;28;20110;-92
2023/05/07 05:52:41;;;;;;;24.88;16.48;;;;;;;;;;5015792;28;20054;-91
2023/05/07 05:55:09;;;;;;;25.33;16.95;;;;;;;;;;5015283;28;20053;-91
2023/05/07 05:57:36;;;;;;;23.88;16.58;;;;;;;;;;5015067;28;20085;-92
2023/05/07 06:00:04;;;;;;;24.58;17.17;;;;;;;;;;5014560;28;20050;-92
2023/05/07 06:02:32;;;;;;;24.70;16.23;;;;;;;;;;5014191;28;20073;-91
2023/05/07 06:04:59;;;;;;;22.45;15.95;;;;;;;;;;5013956;28;20568;-91
2023/05/07 06:07:26;;;;;;;23.77;16.42;;;;;;;;;;5015401;28;20054;-92
2023/05/07 06:09:55;;;;;;;21.63;15.90;;;;;;;;;;5015165;28;20052;-91
2023/05/07 06:12:22;;;;;;;25.83;16.38;;;;;;;;;;5014268;28;20491;-91
2023/05/07 06:14:49;;;;;;;23.35;16.10;;;;;;;;;;5013820;28;20494;-91
2023/05/07 06:17:16;;;;;;;22.75;15.38;;;;;;;;;;5014129;28;20077;-91
2023/05/07 06:19:47;;;;;;;21.85;15.27;;;;;;;;;;5015058;28;20057;-91
2023/05/07 06:22:14;;;;;;;23.70;15.30;;;;;;;;;;5013896;28;20514;-91
2023/05/07 06:24:42;;;;;;;24.17;15.88;;;;;;;;;;5013782;28;20513;-91
2023/05/07 06:27:09;;;;;;;23.40;15.10;;;;;;;;;;5013937;28;20430;-92
2023/05/07 06:29:36;;;;;;;22.42;15.15;;;;;;;;;;5013804;28;20060;-92
2023/05/07 06:32:14;;;;;;;22.27;14.55;;;;;;;;;;5013822;28;20049;-91
2023/05/07 06:34:41;;;;;;;22.08;14.57;;;;;;;;;;5013384;28;20068;-91
2023/05/07 06:37:08;;;;;;;23.48;15.43;;;;;;;;;;5014709;28;20054;-92
2023/05/07 06:39:36;;;;;;;20.48;13.60;;;;;;;;;;5021740;28;20046;-91
2023/05/07 06:42:04;;;;;;;19.05;14.00;;;;;;;;;;5014416;28;20499;-91
2023/05/07 06:44:31;;;;;;;18.30;13.38;;;;;;;;;;5013259;28;20144;-92
2023/05/07 06:46:59;;;;;;;17.83;13.07;;;;;;;;;;5014702;28;20045;-91
2023/05/07 06:49:26;;;;;;;18.63;13.70;;;;;;;;;;5013562;28;20050;-91
2023/05/07 06:51:53;;;;;;;19.52;13.68;;;;;;;;;;5014322;28;20060;-92
2023/05/07 06:54:21;;;;;;;19.75;13.52;;;;;;;;;;5013281;28;20518;-92
2023/05/07 06:56:50;;;;;;;19.20;13.75;;;;;;;;;;5013475;28;20144;-91
2023/05/07 06:59:19;;;;;;;17.40;13.52;;;;;;;;;;5013784;28;20056;-92
2023/05/07 07:01:49;;;;;;;16.10;12.40;;;;;;;;;;5013730;28;20042;-91
2023/05/07 07:04:16;;;;;;;17.52;12.25;;;;;;;;;;5013523;28;20050;-92
2023/05/07 07:06:44;;;;;;;17.77;12.45;;;;;;;;;;5013211;28;20057;-92
2023/05/07 07:09:11;;;;;;;14.25;11.63;;;;;;;;;;5013022;28;20046;-92
2023/05/07 07:11:39;;;;;;;15.60;11.40;;;;;;;;;;5013235;28;20128;-92
2023/05/07 07:14:06;;;;;;;17.55;12.82;;;;;;;;;;5014540;28;20054;-91
2023/05/07 07:16:33;;;;;;;15.75;12.50;;;;;;;;;;5013314;28;20050;-91
2023/05/07 07:19:00;;;;;;;15.02;12.23;;;;;;;;;;5013198;28;20073;-91
2023/05/07 07:21:27;;;;;;;16.27;13.07;;;;;;;;;;5014032;28;20054;-92
2023/05/07 07:23:55;;;;;;;14.35;11.45;;;;;;;;;;5019601;28;20097;-92
2023/05/07 07:26:23;;;;;;;16.48;12.57;;;;;;;;;;5013374;28;20422;-91
2023/05/07 07:28:50;;;;;;;19.40;14.23;;;;;;;;;;5013100;28;20088;-91
2023/05/07 07:31:17;;;;;;;19.08;13.68;;;;;;;;;;5013404;28;20054;-92
2023/05/07 07:33:45;;;;;;;24.40;18.15;;;;;;;;;;5013099;28;20046;-91
2023/05/07 07:36:12;;;;;;;16.38;11.85;;;;;;;;;;5012891;28;20049;-91
2023/05/07 07:38:39;;;;;;;15.88;12.02;;;;;;;;;;5012869;28;20471;-90
2023/05/07 07:41:08;;;;;;;16.80;12.88;;;;;;;;;;5013107;28;20324;-90
2023/05/07 07:43:35;;;;;;;35.83;28.75;;;;;;;;;;5012774;28;20049;-92
2023/05/07 07:46:03;;;;;;;26.23;20.73;;;;;;;;;;5012767;28;20479;-92
2023/05/07 07:48:30;;;;;;;17.33;13.52;;;;;;;;;;5012872;28;20085;-91
2023/05/07 07:50:57;;;;;;;20.98;13.90;;;;;;;;;;5013512;28;20089;-91
2023/05/07 07:53:25;;;;;;;18.27;14.43;;;;;;;;;;5015255;28;20046;-90
2023/05/07 07:55:52;;;;;;;21.70;14.60;;;;;;;;;;5016866;28;20048;-93
2023/05/07 07:58:25;;;;;;;18.63;13.50;;;;;;;;;;5013719;28;20053;-92
2023/05/07 08:00:54;;;;;;;20.70;16.83;;;;;;;;;;5012888;28;20104;-91
2023/05/07 08:03:21;;;;;;;20.27;16.23;;;;;;;;;;5012819;28;20533;-91
2023/05/07 08:05:50;;;;;;;24.30;18.73;;;;;;;;;;5012560;28;20050;-93
2023/05/07 08:08:18;;;;;;;21.50;16.38;;;;;;;;;;5013797;28;20109;-92
2023/05/07 08:10:45;;;;;;;26.25;19.00;;;;;;;;;;5011843;28;20056;-92
2023/05/07 08:13:12;;;;;;;24.00;16.70;;;;;;;;;;5012492;28;20403;-92
2023/05/07 08:15:40;;;;;;;63.30;40.03;;;;;;;;;;5012459;28;20061;-91
2023/05/07 08:18:07;;;;;;;28.50;20.33;;;;;;;;;;5014042;28;20457;-91
2023/05/07 08:20:39;;;;;;;21.77;16.50;;;;;;;;;;5013617;28;20137;-92
2023/05/07 08:23:07;;;;;;;24.52;17.27;;;;;;;;;;5015916;28;20064;-91
2023/05/07 08:25:34;;;;;;;23.85;16.17;;;;;;;;;;5015965;28;20050;-91
2023/05/07 08:28:03;;;;;;;24.25;18.05;;;;;;;;;;5017180;28;20045;-93
2023/05/07 08:30:30;;;;;;;20.52;15.32;;;;;;;;;;5016547;28;20046;-92
2023/05/07 08:32:57;;;;;;;25.10;20.77;;;;;;;;;;5016664;28;20140;-92
2023/05/07 08:35:25;;;;;;;53.42;42.75;;;;;;;;;;5016075;28;20050;-91
2023/05/07 08:37:53;;;;;;;20.17;15.48;;;;;;;;;;5016130;28;20062;-92
2023/05/07 08:40:21;;;;;;;27.65;18.55;;;;;;;;;;5015637;28;20046;-92
2023/05/07 08:42:50;;;;;;;19.67;15.27;;;;;;;;;;5016384;28;20061;-92
2023/05/07 08:45:19;;;;;;;18.70;13.38;;;;;;;;;;5017818;28;20517;-92
2023/05/07 08:47:52;;;;;;;18.15;13.40;;;;;;;;;;5016481;28;20058;-92
2023/05/07 08:50:21;;;;;;;18.23;15.55;;;;;;;;;;5016269;28;20057;-92
2023/05/07 08:52:50;;;;;;;20.13;14.00;;;;;;;;;;5016366;28;20052;-91
2023/05/07 08:55:17;;;;;;;26.92;22.33;;;;;;;;;;5016401;28;20437;-89
2023/05/07 08:57:45;;;;;;;39.90;29.92;;;;;;;;;;5000251;28;20057;-91
2023/05/07 09:00:12;;;;;;;18.85;15.18;;;;;;;;;;5018083;28;20046;-92
2023/05/07 09:02:40;;;;;;;21.75;15.57;;;;;;;;;;5016513;28;20057;-92
2023/05/07 09:05:08;;;;;;;20.50;15.75;;;;;;;;;;5000996;28;20054;-91
2023/05/07 09:07:36;;;;;;;18.55;13.95;;;;;;;;;;5021530;28;20054;-91
2023/05/07 09:10:11;;;;;;;19.98;14.23;;;;;;;;;;5031031;28;20046;-91
2023/05/07 09:12:40;;;;;;;18.25;13.88;;;;;;;;;;5016768;28;20085;-92
2023/05/07 09:15:08;;;;;;;17.00;13.70;;;;;;;;;;5015844;28;20141;-91
2023/05/07 09:17:36;;;;;;;17.45;13.80;;;;;;;;;;5016108;28;20081;-93
2023/05/07 09:20:04;;;;;;;15.10;12.23;;;;;;;;;;5016078;28;20053;-92
2023/05/07 09:22:34;;;;;;;15.10;12.35;;;;;;;;;;5015492;28;20065;-91
2023/05/07 09:25:01;;;;;;;15.68;12.70;;;;;;;;;;5016063;28;20554;-89
2023/05/07 09:27:29;;;;;;;16.35;13.07;;;;;;;;;;5016464;28;20092;-92
2023/05/07 09:29:56;;;;;;;18.02;12.63;;;;;;;;;;5016924;28;20077;-91
2023/05/07 09:32:25;;;;;;;15.73;12.82;;;;;;;;;;5015654;28;20511;-92
2023/05/07 09:34:52;;;;;;;17.48;12.07;;;;;;;;;;5024299;28;20077;-89
2023/05/07 09:37:20;;;;;;;16.25;12.32;;;;;;;;;;5017313;28;20418;-92
2023/05/07 09:39:50;;;;;;;16.73;12.07;;;;;;;;;;5015824;28;20057;-91
2023/05/07 09:42:23;;;;;;;15.68;11.98;;;;;;;;;;5015684;28;20500;-91
2023/05/07 09:44:51;;;;;;;14.05;10.68;;;;;;;;;;5015079;28;20046;-89
2023/05/07 09:47:19;;;;;;;13.45;11.63;;;;;;;;;;5016552;28;20068;-90
2023/05/07 09:49:48;;;;;;;14.82;11.52;;;;;;;;;;5016662;28;20046;-91
2023/05/07 09:52:15;;;;;;;15.45;12.32;;;;;;;;;;5015519;28;20137;-87
2023/05/07 09:54:43;;;;;;;13.77;11.52;;;;;;;;;;5015274;28;20049;-91
2023/05/07 09:57:11;;;;;;;12.50;10.85;;;;;;;;;;5016092;28;20173;-92
2023/05/07 09:59:42;;;;;;;13.63;10.88;;;;;;;;;;5015681;28;20077;-90
2023/05/07 10:02:10;;;;;;;11.23;9.80;;;;;;;;;;5015550;28;20042;-91
2023/05/07 10:04:37;;;;;;;11.57;9.93;;;;;;;;;;5015923;28;20060;-89
2023/05/07 10:07:05;;;;;;;12.40;10.48;;;;;;;;;;5015570;28;20144;-90
2023/05/07 10:09:38;;;;;;;15.10;10.73;;;;;;;;;;5015068;28;20046;-89
2023/05/07 10:12:06;;;;;;;18.33;10.07;;;;;;;;;;5015866;28;20050;-89
2023/05/07 10:14:35;;;;;;;9.80;8.82;;;;;;;;;;5014528;28;20046;-92
2023/05/07 10:17:02;;;;;;;9.50;7.93;;;;;;;;;;5015204;28;20103;-90
2023/05/07 10:19:30;;;;;;;11.90;9.55;;;;;;;;;;5016368;28;20056;-90
2023/05/07 10:22:02;;;;;;;10.77;9.68;;;;;;;;;;5016988;28;20052;-90
2023/05/07 10:24:33;;;;;;;9.93;8.93;;;;;;;;;;5031719;28;20109;-90
2023/05/07 10:27:02;;;;;;;10.88;9.18;;;;;;;;;;5016277;28;20413;-92
2023/05/07 10:29:39;;;;;;;9.60;8.60;;;;;;;;;;5014612;28;20592;-89
2023/05/07 10:32:14;;;;;;;10.15;8.52;;;;;;;;;;5014372;28;20054;-89
2023/05/07 10:34:44;;;;;;;10.18;8.68;;;;;;;;;;5014807;28;20046;-90
2023/05/07 10:37:12;;;;;;;20.35;13.00;;;;;;;;;;5014120;28;20052;-91
2023/05/07 10:39:41;;;;;;;10.43;9.30;;;;;;;;;;5014030;28;20056;-88
2023/05/07 10:42:09;;;;;;;10.50;9.40;;;;;;;;;;5013839;28;20057;-89
2023/05/07 10:44:37;;;;;;;11.60;9.15;;;;;;;;;;5013406;28;20045;-89
2023/05/07 10:47:05;;;;;;;12.30;8.93;;;;;;;;;;5014052;28;20050;-91
2023/05/07 10:49:33;;;;;;;11.65;9.70;;;;;;;;;;5015119;28;20062;-89
2023/05/07 10:52:26;;;;;;;134.93;101.88;;;;;;;;;;5015027;28;20406;-90
2023/05/07 10:55:12;;;;;;;15.63;10.88;;;;;;;;;;5012608;28;20080;-90
2023/05/07 10:57:39;;;;;;;19.35;16.13;;;;;;;;;;5013851;28;20092;-91
2023/05/07 11:00:13;;;;;;;53.10;31.30;;;;;;;;;;5014422;28;20073;-89
2023/05/07 11:03:02;;;;;;;60.60;36.00;;;;;;;;;;5013609;28;20060;-90
2023/05/07 11:05:30;;;;;;;26.05;16.30;;;;;;;;;;5013524;28;20046;-89
2023/05/07 11:08:04;;;;;;;13.50;10.48;;;;;;;;;;5013428;28;20050;-93
2023/05/07 11:10:51;;;;;;;12.90;10.50;;;;;;;;;;5014186;28;20054;-92
2023/05/07 11:13:19;;;;;;;11.93;10.40;;;;;;;;;;5013741;28;20062;-90
2023/05/07 11:15:47;;;;;;;8.32;7.55;;;;;;;;;;5014393;28;20123;-90
2023/05/07 11:18:17;;;;;;;9.95;8.43;;;;;;;;;;5015977;28;20042;-92
2023/05/07 11:20:50;;;;;;;9.60;8.70;;;;;;;;;;5014268;28;20141;-88
2023/05/07 11:23:32;;;;;;;9.75;8.75;;;;;;;;;;5014003;28;20137;-91
2023/05/07 11:26:04;;;;;;;8.65;7.75;;;;;;;;;;5014667;28;20414;-89
2023/05/07 11:28:32;;;;;;;8.77;7.88;;;;;;;;;;5014035;28;20049;-89
2023/05/07 11:30:59;;;;;;;8.82;7.93;;;;;;;;;;5017201;28;20112;-88
2023/05/07 11:33:27;;;;;;;9.85;8.13;;;;;;;;;;5013240;28;20505;-90
2023/05/07 11:35:54;;;;;;;8.10;7.30;;;;;;;;;;5013851;28;20061;-88
2023/05/07 11:38:22;;;;;;;7.95;7.20;;;;;;;;;;5017565;28;20056;-90
2023/05/07 11:40:53;;;;;;;11.05;9.32;;;;;;;;;;5029359;28;20056;-90
2023/05/07 11:43:21;;;;;;;9.32;8.32;;;;;;;;;;5015855;28;20196;-90
2023/05/07 11:45:49;;;;;;;16.45;11.48;;;;;;;;;;5017435;28;20060;-90
2023/05/07 11:48:17;;;;;;;11.23;10.02;;;;;;;;;;4997200;28;20104;-90
2023/05/07 11:50:51;;;;;;;8.57;7.80;;;;;;;;;;4996918;28;20501;-90
2023/05/07 11:53:19;;;;;;;10.25;8.88;;;;;;;;;;5012868;28;20058;-89
2023/05/07 11:55:47;;;;;;;9.55;8.55;;;;;;;;;;5014008;28;20427;-91
2023/05/07 11:58:20;;;;;;;11.23;8.95;;;;;;;;;;5016327;28;20563;-91
2023/05/07 12:00:51;;;;;;;9.20;8.30;;;;;;;;;;5016973;28;20056;-90
2023/05/07 12:03:19;;;;;;;8.98;7.70;;;;;;;;;;5017544;28;20054;-89
2023/05/07 12:05:47;;;;;;;12.18;10.82;;;;;;;;;;5017845;28;20049;-88
2023/05/07 12:08:15;;;;;;;10.35;9.35;;;;;;;;;;5016933;28;20053;-90
2023/05/07 12:10:43;;;;;;;9.45;8.45;;;;;;;;;;5016331;28;20050;-88
2023/05/07 12:13:21;;;;;;;8.63;7.78;;;;;;;;;;5016726;28;20054;-88
2023/05/07 12:15:52;;;;;;;8.07;7.25;;;;;;;;;;5017829;28;20058;-88
2023/05/07 12:18:20;;;;;;;9.82;8.30;;;;;;;;;;5016657;28;20054;-89
2023/05/07 12:20:48;;;;;;;7.70;7.00;;;;;;;;;;5017197;28;20057;-89
2023/05/07 12:23:15;;;;;;;10.20;8.20;;;;;;;;;;5016032;28;20076;-90
2023/05/07 12:25:46;;;;;;;9.10;7.63;;;;;;;;;;5017131;28;20103;-88
2023/05/07 12:28:17;;;;;;;8.27;7.22;;;;;;;;;;5019711;28;20046;-91
2023/05/07 12:30:46;;;;;;;8.65;7.82;;;;;;;;;;5018207;28;20064;-91
2023/05/07 12:33:16;;;;;;;7.65;6.95;;;;;;;;;;5016274;28;20053;-90
2023/05/07 12:35:44;;;;;;;8.35;7.60;;;;;;;;;;5016841;28;20053;-87
2023/05/07 12:38:12;;;;;;;9.25;7.45;;;;;;;;;;5017043;28;20068;-89
2023/05/07 12:40:40;;;;;;;7.80;7.00;;;;;;;;;;5017748;28;20089;-90
2023/05/07 12:43:17;;;;;;;7.68;6.88;;;;;;;;;;5017484;28;20050;-88
2023/05/07 12:45:44;;;;;;;9.63;8.02;;;;;;;;;;5018590;28;20514;-90
2023/05/07 12:48:12;;;;;;;9.38;7.47;;;;;;;;;;5019210;28;20061;-86
2023/05/07 12:50:39;;;;;;;8.55;7.75;;;;;;;;;;5015945;28;20442;-88
2023/05/07 12:53:09;;;;;;;7.82;7.07;;;;;;;;;;5016342;28;20064;-90
2023/05/07 12:55:43;;;;;;;9.75;7.65;;;;;;;;;;5000662;28;20081;-88
2023/05/07 12:58:18;;;;;;;8.20;7.40;;;;;;;;;;5001842;28;20450;-87
2023/05/07 13:00:48;;;;;;;7.60;6.90;;;;;;;;;;5010575;28;20073;-89
2023/05/07 13:03:24;;;;;;;8.18;7.15;;;;;;;;;;5018063;28;20050;-91
2023/05/07 13:05:55;;;;;;;7.78;7.07;;;;;;;;;;5017187;28;20046;-90
2023/05/07 13:08:29;;;;;;;7.35;6.68;;;;;;;;;;5005849;28;20521;-91
2023/05/07 13:10:58;;;;;;;9.32;7.32;;;;;;;;;;5004883;28;20053;-90
2023/05/07 13:13:25;;;;;;;8.40;7.00;;;;;;;;;;5013292;28;20049;-88
2023/05/07 13:15:55;;;;;;;9.00;7.05;;;;;;;;;;5015821;28;20054;-93
2023/05/07 13:18:25;;;;;;;9.88;7.25;;;;;;;;;;5016363;28;20509;-91
2023/05/07 13:20:53;;;;;;;7.47;6.68;;;;;;;;;;5015216;28;20050;-91
2023/05/07 13:23:21;;;;;;;7.95;7.20;;;;;;;;;;5015706;28;20084;-91
2023/05/07 13:25:49;;;;;;;7.55;6.85;;;;;;;;;;5015759;28;20495;-90
2023/05/07 13:28:16;;;;;;;7.03;6.32;;;;;;;;;;5015443;28;20559;-88
2023/05/07 13:30:44;;;;;;;6.88;6.28;;;;;;;;;;5015235;28;20061;-90
2023/05/07 13:33:11;;;;;;;6.80;6.18;;;;;;;;;;5014951;28;20080;-91
2023/05/07 13:35:39;;;;;;;6.50;5.90;;;;;;;;;;5015551;28;20050;-88
2023/05/07 13:38:06;;;;;;;6.00;5.40;;;;;;;;;;5014564;28;20056;-88
2023/05/07 13:40:33;;;;;;;6.38;5.80;;;;;;;;;;5004100;28;20050;-87
2023/05/07 13:43:04;;;;;;;6.80;5.93;;;;;;;;;;5016084;28;20081;-91
2023/05/07 13:45:31;;;;;;;7.78;5.93;;;;;;;;;;5014704;28;20053;-89
2023/05/07 13:47:58;;;;;;;6.70;6.05;;;;;;;;;;5015006;28;20120;-88
2023/05/07 13:50:27;;;;;;;6.18;5.68;;;;;;;;;;5014702;28;20518;-88
2023/05/07 13:52:54;;;;;;;5.97;5.47;;;;;;;;;;5015991;28;20395;-87
2023/05/07 13:55:22;;;;;;;5.93;5.43;;;;;;;;;;5015288;28;20411;-88
2023/05/07 13:57:56;;;;;;;5.40;4.90;;;;;;;;;;5015525;28;20058;-90
2023/05/07 14:00:23;;;;;;;7.80;5.33;;;;;;;;;;5017174;28;20042;-87
2023/05/07 14:02:51;;;;;;;5.53;5.03;;;;;;;;;;5018594;28;20056;-90
2023/05/07 14:05:23;;;;;;;5.90;5.03;;;;;;;;;;5015999;28;20073;-89
2023/05/07 14:07:53;;;;;;;6.57;5.22;;;;;;;;;;5014871;28;20045;-89
2023/05/07 14:10:20;;;;;;;5.75;5.22;;;;;;;;;;5015088;28;20046;-88
2023/05/07 14:12:47;;;;;;;5.65;5.15;;;;;;;;;;5016733;28;20056;-90
2023/05/07 14:15:15;;;;;;;5.20;4.50;;;;;;;;;;5007534;28;20042;-91
2023/05/07 14:17:43;;;;;;;3.97;3.70;;;;;;;;;;4997604;28;20125;-89
2023/05/07 14:20:11;;;;;;;5.00;4.60;;;;;;;;;;4994806;28;20038;-89
2023/05/07 14:22:41;;;;;;;4.45;4.15;;;;;;;;;;4994288;28;20118;-90
2023/05/07 14:25:09;;;;;;;4.60;4.20;;;;;;;;;;4994423;28;20487;-88
2023/05/07 14:27:37;;;;;;;4.47;4.07;;;;;;;;;;4994313;28;20554;-89
2023/05/07 14:30:04;;;;;;;4.88;4.40;;;;;;;;;;4994894;28;20062;-88